Time;durP1;ratioP1;P1;durP2;ratioP2;P2;SDS_P1;SDS_P2;PMS_P1;PMS_P2;Temp;Humidity;BMP_temperature;BMP_pressure;BME280_temperature;BME280_humidity;BME280_pressure;Samples;Min_cycle;Max_cycle;Signal;HPM_P1;HPM_P2
2023/08/21 00:01:59;;;;;;;0.20;0.10;;;24.00;73.10;;;;;;5024579;28;20111;-76
2023/08/21 00:04:24;;;;;;;0.30;0.20;;;24.00;73.10;;;;;;5021423;28;20042;-76
2023/08/21 00:06:50;;;;;;;1.17;0.28;;;24.00;73.10;;;;;;5006355;28;20061;-76
2023/08/21 00:09:16;;;;;;;5.45;0.30;;;24.00;73.20;;;;;;4989167;28;20037;-77
2023/08/21 00:11:41;;;;;;;0.77;0.20;;;24.00;73.20;;;;;;5018788;28;20041;-76
2023/08/21 00:14:07;;;;;;;0.25;0.20;;;24.00;73.10;;;;;;5023089;28;20045;-75
2023/08/21 00:16:33;;;;;;;0.80;0.20;;;24.00;73.20;;;;;;5022308;28;20392;-75
2023/08/21 00:18:58;;;;;;;0.77;0.20;;;24.00;73.20;;;;;;5008295;28;20099;-75
2023/08/21 00:21:25;;;;;;;0.63;0.40;;;23.90;73.30;;;;;;5003258;28;20049;-76
2023/08/21 00:23:51;;;;;;;0.32;0.20;;;24.00;73.20;;;;;;5004307;28;20401;-77
2023/08/21 00:26:17;;;;;;;0.30;0.30;;;23.90;73.20;;;;;;5007781;28;20442;-77
2023/08/21 00:28:42;;;;;;;0.47;0.20;;;23.90;73.20;;;;;;5022042;28;20435;-75
2023/08/21 00:31:08;;;;;;;0.32;0.20;;;23.90;73.30;;;;;;5023373;28;20116;-76
2023/08/21 00:33:33;;;;;;;0.85;0.30;;;23.90;73.10;;;;;;5022315;28;20026;-76
2023/08/21 00:35:59;;;;;;;0.68;0.30;;;23.90;73.30;;;;;;5022619;28;20066;-75
2023/08/21 00:38:25;;;;;;;0.82;0.22;;;23.90;74.00;;;;;;5005536;28;20033;-76
2023/08/21 00:40:51;;;;;;;0.40;0.20;;;23.90;73.20;;;;;;5019931;28;20069;-77
2023/08/21 00:43:16;;;;;;;0.73;0.30;;;23.90;73.20;;;;;;5021478;28;20033;-77
2023/08/21 00:45:43;;;;;;;0.10;0.10;;;23.90;73.50;;;;;;5021553;28;20051;-76
2023/08/21 00:48:09;;;;;;;0.95;0.10;;;23.90;73.60;;;;;;5004994;28;20065;-76
2023/08/21 00:50:35;;;;;;;0.70;0.30;;;23.90;73.70;;;;;;5017586;28;20479;-77
2023/08/21 00:53:01;;;;;;;0.35;0.30;;;23.90;73.60;;;;;;5007246;28;20069;-76
2023/08/21 00:55:26;;;;;;;0.20;0.20;;;23.90;73.80;;;;;;5022103;28;20120;-76
2023/08/21 00:57:52;;;;;;;0.80;0.20;;;23.90;73.60;;;;;;5021868;28;20136;-75
2023/08/21 01:00:18;;;;;;;0.30;0.10;;;23.90;73.90;;;;;;5022183;28;20033;-76
2023/08/21 01:02:43;;;;;;;0.25;0.25;;;23.90;74.10;;;;;;5023008;28;20042;-75
2023/08/21 01:05:09;;;;;;;0.20;0.13;;;23.90;73.80;;;;;;5023085;28;20076;-75
2023/08/21 01:07:38;;;;;;;0.43;0.20;;;23.90;74.10;;;;;;5020183;28;20052;-76
2023/08/21 01:10:15;;;;;;;0.40;0.30;;;23.90;73.70;;;;;;5005812;28;20057;-76
2023/08/21 01:12:47;;;;;;;0.47;0.30;;;23.90;73.80;;;;;;5029251;28;20064;-76
2023/08/21 01:15:13;;;;;;;0.50;0.40;;;23.90;73.90;;;;;;5021114;28;20041;-75
2023/08/21 01:17:39;;;;;;;1.17;0.20;;;23.90;74.00;;;;;;5004529;28;20538;-76
2023/08/21 01:20:06;;;;;;;0.13;0.13;;;23.90;74.00;;;;;;4988427;28;20046;-76
2023/08/21 01:22:39;;;;;;;0.63;0.52;;;23.90;74.20;;;;;;4989519;28;20167;-76
2023/08/21 01:25:05;;;;;;;0.57;0.20;;;23.80;73.90;;;;;;5021058;28;20049;-77
2023/08/21 01:27:31;;;;;;;0.50;0.22;;;23.90;74.00;;;;;;5021745;28;20049;-76
2023/08/21 01:29:56;;;;;;;0.22;0.15;;;23.80;74.00;;;;;;5024124;28;20114;-75
2023/08/21 01:32:35;;;;;;;1.80;0.40;;;23.80;73.80;;;;;;5004735;28;20491;-76
2023/08/21 01:35:00;;;;;;;0.20;0.20;;;23.80;73.90;;;;;;5051183;28;20034;-76
2023/08/21 01:37:26;;;;;;;0.20;0.20;;;23.80;74.00;;;;;;5044971;28;20060;-77
2023/08/21 01:39:52;;;;;;;0.65;0.25;;;23.80;73.60;;;;;;4989362;28;20447;-76
2023/08/21 01:42:17;;;;;;;0.38;0.20;;;23.80;73.60;;;;;;5022917;28;20037;-77
2023/08/21 01:44:45;;;;;;;0.40;0.13;;;23.80;73.70;;;;;;5001790;28;20408;-76
2023/08/21 01:47:11;;;;;;;0.90;0.30;;;23.80;73.60;;;;;;5011783;28;20053;-76
2023/08/21 01:49:37;;;;;;;0.10;0.10;;;23.80;73.70;;;;;;5025534;28;20092;-76
2023/08/21 01:52:03;;;;;;;0.38;0.10;;;23.80;73.60;;;;;;5024029;28;20434;-77
2023/08/21 01:54:28;;;;;;;0.35;0.32;;;23.80;73.60;;;;;;5026111;28;20042;-76
2023/08/21 01:56:54;;;;;;;0.30;0.22;;;23.80;73.60;;;;;;4989911;28;20537;-76
2023/08/21 01:59:20;;;;;;;0.50;0.20;;;23.80;73.60;;;;;;5023758;28;20033;-76
2023/08/21 02:01:45;;;;;;;0.55;0.20;;;23.80;73.60;;;;;;5026934;28;20056;-76
2023/08/21 02:04:11;;;;;;;0.40;0.25;;;23.80;73.60;;;;;;5026518;28;20057;-75
2023/08/21 02:06:36;;;;;;;0.60;0.30;;;23.80;73.70;;;;;;5009209;28;20073;-76
2023/08/21 02:09:02;;;;;;;0.13;0.13;;;23.80;73.60;;;;;;5040492;28;20124;-76
2023/08/21 02:11:28;;;;;;;0.38;0.30;;;23.70;73.70;;;;;;5019526;28;20553;-76
2023/08/21 02:13:53;;;;;;;0.20;0.20;;;23.70;73.60;;;;;;5006047;28;20057;-76
2023/08/21 02:16:21;;;;;;;0.20;0.10;;;23.80;73.60;;;;;;5025284;28;20053;-77
2023/08/21 02:18:47;;;;;;;0.30;0.20;;;23.80;73.70;;;;;;5026854;28;20056;-76
2023/08/21 02:21:13;;;;;;;0.52;0.20;;;23.80;73.80;;;;;;5025938;28;20049;-76
2023/08/21 02:23:38;;;;;;;0.90;0.30;;;23.80;73.60;;;;;;5026534;28;20041;-76
2023/08/21 02:26:04;;;;;;;0.10;0.10;;;23.80;73.50;;;;;;5011372;28;20073;-76
2023/08/21 02:28:29;;;;;;;0.40;0.30;;;23.70;73.50;;;;;;5025160;28;20053;-76
2023/08/21 02:30:55;;;;;;;1.63;0.20;;;23.70;73.40;;;;;;5024925;28;20098;-76
2023/08/21 02:33:20;;;;;;;0.15;0.13;;;23.70;73.40;;;;;;5026551;28;20041;-77
2023/08/21 02:35:46;;;;;;;0.55;0.20;;;23.70;73.40;;;;;;5009412;28;20545;-76
2023/08/21 02:38:12;;;;;;;0.40;0.25;;;23.70;74.20;;;;;;5024275;28;20044;-76
2023/08/21 02:40:37;;;;;;;0.20;0.10;;;23.70;73.30;;;;;;5026702;28;20041;-76
2023/08/21 02:43:03;;;;;;;0.20;0.10;;;23.70;73.30;;;;;;5005787;28;20643;-76
2023/08/21 02:45:28;;;;;;;0.30;0.10;;;23.70;73.10;;;;;;5022264;28;20404;-76
2023/08/21 02:47:54;;;;;;;0.60;0.20;;;23.70;73.20;;;;;;5022648;28;20583;-76
2023/08/21 02:50:20;;;;;;;0.13;0.10;;;23.70;73.10;;;;;;5021428;28;20302;-77
2023/08/21 02:52:45;;;;;;;0.20;0.10;;;23.70;73.20;;;;;;5009557;28;20045;-76
2023/08/21 02:55:11;;;;;;;0.00;0.00;;;23.70;73.20;;;;;;5025965;28;20050;-76
2023/08/21 02:57:36;;;;;;;0.10;0.10;;;23.70;73.10;;;;;;5024532;28;20057;-76
2023/08/21 03:00:02;;;;;;;0.25;0.10;;;23.70;73.10;;;;;;5026379;28;20523;-75
2023/08/21 03:02:28;;;;;;;0.45;0.22;;;23.70;73.10;;;;;;5023970;28;20408;-76
2023/08/21 03:04:54;;;;;;;0.30;0.20;;;23.70;73.20;;;;;;5023504;28;20053;-76
2023/08/21 03:07:19;;;;;;;0.55;0.25;;;23.70;73.00;;;;;;5025568;28;20124;-77
2023/08/21 03:09:46;;;;;;;0.20;0.20;;;23.70;73.10;;;;;;5010414;28;20782;-77
2023/08/21 03:12:12;;;;;;;0.40;0.20;;;23.70;73.10;;;;;;5026364;28;20087;-77
2023/08/21 03:14:37;;;;;;;0.25;0.20;;;23.70;73.70;;;;;;5024975;28;20549;-77
2023/08/21 03:17:03;;;;;;;0.30;0.20;;;23.70;73.90;;;;;;5022269;28;20121;-76
2023/08/21 03:19:28;;;;;;;0.15;0.10;;;23.70;73.10;;;;;;5021641;28;20545;-76
2023/08/21 03:21:54;;;;;;;0.63;0.20;;;23.70;73.10;;;;;;5025968;28;20042;-76
2023/08/21 03:24:20;;;;;;;0.35;0.20;;;23.70;73.00;;;;;;5026387;28;20045;-76
2023/08/21 03:26:45;;;;;;;1.65;0.10;;;23.70;73.00;;;;;;5021645;28;20045;-77
2023/08/21 03:29:11;;;;;;;0.20;0.10;;;23.70;73.10;;;;;;5025282;28;20049;-77
2023/08/21 03:31:36;;;;;;;0.20;0.10;;;23.60;72.90;;;;;;5024627;28;20087;-77
2023/08/21 03:34:02;;;;;;;0.10;0.10;;;23.70;72.90;;;;;;5051010;28;20057;-76
2023/08/21 03:36:31;;;;;;;0.22;0.22;;;23.70;73.30;;;;;;5024684;28;20034;-76
2023/08/21 03:39:00;;;;;;;0.35;0.30;;;23.60;72.90;;;;;;5024437;28;20245;-77
2023/08/21 03:41:26;;;;;;;0.17;0.15;;;23.60;72.90;;;;;;5024814;28;20045;-77
2023/08/21 03:43:51;;;;;;;0.50;0.20;;;23.70;73.00;;;;;;5039813;28;20045;-77
2023/08/21 03:46:17;;;;;;;0.10;0.10;;;23.60;73.00;;;;;;5021932;28;20040;-77
2023/08/21 03:48:43;;;;;;;0.47;0.20;;;23.70;73.00;;;;;;5020952;28;20415;-77
2023/08/21 03:51:08;;;;;;;0.00;0.00;;;23.60;72.90;;;;;;5026261;28;20044;-77
2023/08/21 03:53:34;;;;;;;0.15;0.15;;;23.60;72.80;;;;;;5021308;28;20060;-77
2023/08/21 03:55:59;;;;;;;0.28;0.25;;;23.60;73.00;;;;;;5024135;28;20510;-77
2023/08/21 03:58:26;;;;;;;0.22;0.20;;;23.60;72.80;;;;;;5023647;28;20097;-77
2023/08/21 04:00:52;;;;;;;0.30;0.10;;;23.60;72.80;;;;;;5025786;28;20049;-77
2023/08/21 04:03:18;;;;;;;0.57;0.20;;;23.70;72.80;;;;;;5023759;28;20039;-77
2023/08/21 04:05:43;;;;;;;0.20;0.20;;;23.60;72.80;;;;;;5006244;28;20115;-77
2023/08/21 04:08:09;;;;;;;0.20;0.08;;;23.60;72.80;;;;;;5024087;28;20449;-77
2023/08/21 04:10:35;;;;;;;0.20;0.10;;;23.60;72.80;;;;;;5004505;28;20033;-77
2023/08/21 04:13:00;;;;;;;0.20;0.10;;;23.60;72.90;;;;;;5023045;28;20045;-77
2023/08/21 04:15:26;;;;;;;0.22;0.10;;;23.60;72.80;;;;;;5023835;28;20415;-76
2023/08/21 04:17:52;;;;;;;0.35;0.35;;;23.60;72.80;;;;;;5022245;28;20037;-76
2023/08/21 04:20:19;;;;;;;0.28;0.20;;;23.60;73.00;;;;;;5022093;28;20033;-76
2023/08/21 04:22:45;;;;;;;0.05;0.05;;;23.60;73.20;;;;;;5023957;28;20557;-76
2023/08/21 04:25:11;;;;;;;0.10;0.10;;;23.60;72.80;;;;;;5024495;28;20037;-76
2023/08/21 04:27:36;;;;;;;0.38;0.17;;;23.60;72.80;;;;;;5024571;28;20197;-76
2023/08/21 04:30:02;;;;;;;0.10;0.10;;;23.60;72.80;;;;;;5025516;28;20131;-76
2023/08/21 04:32:28;;;;;;;1.02;0.15;;;23.60;72.90;;;;;;5018980;28;20487;-76
2023/08/21 04:34:53;;;;;;;0.30;0.10;;;23.60;72.90;;;;;;5024535;28;20045;-77
2023/08/21 04:37:19;;;;;;;0.10;0.10;;;23.70;72.90;;;;;;5021813;28;20048;-76
2023/08/21 04:39:45;;;;;;;0.40;0.10;;;23.60;72.80;;;;;;5023676;28;20517;-77
2023/08/21 04:42:11;;;;;;;0.30;0.10;;;23.60;72.80;;;;;;5023899;28;20526;-76
2023/08/21 04:44:36;;;;;;;0.20;0.20;;;23.60;73.60;;;;;;5024576;28;20139;-76
2023/08/21 04:47:19;;;;;;;0.10;0.10;;;23.60;72.80;;;;;;5023092;28;20571;-75
2023/08/21 04:49:45;;;;;;;0.68;0.20;;;23.60;72.70;;;;;;5019408;28;20549;-76
2023/08/21 04:52:10;;;;;;;0.20;0.20;;;23.60;72.70;;;;;;5022889;28;20037;-75
2023/08/21 04:54:36;;;;;;;0.60;0.60;;;23.50;71.50;;;;;;5024493;28;20034;-74
2023/08/21 04:57:01;;;;;;;0.40;0.40;;;22.40;71.00;;;;;;5024133;28;20458;-74
2023/08/21 04:59:27;;;;;;;0.93;0.50;;;21.70;72.80;;;;;;5019339;28;20053;-74
2023/08/21 05:01:52;;;;;;;0.60;0.60;;;21.40;73.60;;;;;;5020863;28;20618;-73
2023/08/21 05:04:18;;;;;;;0.40;0.40;;;21.20;74.50;;;;;;5020649;28;20029;-73
2023/08/21 05:06:43;;;;;;;0.60;0.60;;;21.10;74.90;;;;;;5003999;28;20046;-73
2023/08/21 05:09:09;;;;;;;0.60;0.60;;;21.00;74.90;;;;;;5024549;28;20076;-73
2023/08/21 05:11:35;;;;;;;0.40;0.40;;;21.00;74.90;;;;;;5019566;28;20049;-74
2023/08/21 05:14:00;;;;;;;0.50;0.50;;;20.80;76.00;;;;;;5023501;28;20038;-74
2023/08/21 05:16:26;;;;;;;0.40;0.40;;;20.60;76.20;;;;;;5025825;28;20045;-74
2023/08/21 05:18:51;;;;;;;0.85;0.50;;;20.50;76.40;;;;;;5021511;28;20041;-73
2023/08/21 05:21:17;;;;;;;0.57;0.57;;;20.40;76.80;;;;;;5028374;28;20108;-73
2023/08/21 05:23:42;;;;;;;0.68;0.68;;;20.20;77.70;;;;;;5007935;28;20045;-74
2023/08/21 05:26:08;;;;;;;0.70;0.70;;;20.30;77.60;;;;;;5028835;28;20041;-74
2023/08/21 05:28:33;;;;;;;0.40;0.40;;;20.10;77.60;;;;;;5026213;28;20037;-73
2023/08/21 05:30:59;;;;;;;0.30;0.30;;;20.10;78.00;;;;;;5027354;28;20064;-74
2023/08/21 05:33:24;;;;;;;0.50;0.50;;;19.90;78.70;;;;;;5029722;28;20289;-73
2023/08/21 05:35:50;;;;;;;1.75;0.60;;;19.90;78.90;;;;;;5028046;28;20165;-73
2023/08/21 05:38:15;;;;;;;0.52;0.52;;;19.90;78.30;;;;;;5025658;28;20041;-73
2023/08/21 05:40:42;;;;;;;0.60;0.60;;;19.90;78.80;;;;;;5021782;28;20059;-73
2023/08/21 05:43:07;;;;;;;0.55;0.55;;;19.80;79.40;;;;;;5021804;28;20072;-73
2023/08/21 05:45:33;;;;;;;0.57;0.57;;;19.80;79.30;;;;;;5019659;28;20534;-75
2023/08/21 05:47:59;;;;;;;0.57;0.57;;;19.70;80.00;;;;;;5021715;28;20508;-74
2023/08/21 05:50:24;;;;;;;0.50;0.50;;;19.80;79.70;;;;;;5024013;28;20139;-74
2023/08/21 05:52:50;;;;;;;0.40;0.40;;;19.60;80.20;;;;;;5024077;28;20045;-74
2023/08/21 05:55:15;;;;;;;0.40;0.40;;;19.60;80.90;;;;;;5021840;28;20034;-74
2023/08/21 05:57:41;;;;;;;0.40;0.40;;;19.70;80.50;;;;;;5008826;28;20179;-75
2023/08/21 06:00:09;;;;;;;0.73;0.43;;;19.60;80.70;;;;;;5025709;28;20086;-75
2023/08/21 06:02:35;;;;;;;0.50;0.50;;;19.50;81.40;;;;;;5023311;28;20046;-74
2023/08/21 06:05:01;;;;;;;0.30;0.30;;;19.40;81.90;;;;;;5007390;28;20036;-76
2023/08/21 06:07:26;;;;;;;0.55;0.55;;;19.40;82.20;;;;;;5026708;28;20060;-74
2023/08/21 06:09:52;;;;;;;0.50;0.50;;;19.50;81.60;;;;;;5026609;28;20049;-74
2023/08/21 06:12:18;;;;;;;0.40;0.40;;;19.90;80.60;;;;;;5028176;28;20037;-76
2023/08/21 06:14:44;;;;;;;0.40;0.40;;;20.10;79.50;;;;;;5025467;28;20119;-76
2023/08/21 06:17:10;;;;;;;0.63;0.50;;;20.30;78.90;;;;;;5026609;28;20458;-76
2023/08/21 06:19:35;;;;;;;0.50;0.40;;;20.40;78.40;;;;;;5028264;28;20064;-76
2023/08/21 06:22:01;;;;;;;0.50;0.50;;;20.40;78.30;;;;;;5024042;28;20120;-76
2023/08/21 06:24:28;;;;;;;0.35;0.35;;;20.40;78.20;;;;;;5028211;28;20510;-75
2023/08/21 06:26:53;;;;;;;0.22;0.20;;;20.30;78.70;;;;;;5007876;28;20068;-76
2023/08/21 06:29:20;;;;;;;0.50;0.45;;;20.20;79.20;;;;;;5025555;28;20512;-76
2023/08/21 06:31:46;;;;;;;0.35;0.30;;;20.30;79.30;;;;;;5016247;28;20044;-75
2023/08/21 06:34:11;;;;;;;0.30;0.30;;;20.40;79.20;;;;;;5024668;28;20033;-75
2023/08/21 06:36:37;;;;;;;0.30;0.30;;;20.50;79.20;;;;;;5022184;28;20461;-76
2023/08/21 06:39:03;;;;;;;0.40;0.40;;;20.60;78.60;;;;;;5022058;28;20402;-77
2023/08/21 06:41:29;;;;;;;0.50;0.50;;;20.70;78.40;;;;;;5026143;28;20049;-75
2023/08/21 06:43:54;;;;;;;0.30;0.30;;;20.60;78.40;;;;;;5023208;28;20049;-83
2023/08/21 06:46:20;;;;;;;0.30;0.30;;;20.60;78.70;;;;;;5026176;28;20172;-76
2023/08/21 06:48:46;;;;;;;0.30;0.30;;;20.70;78.40;;;;;;5023066;28;20038;-76
2023/08/21 06:51:11;;;;;;;0.95;0.43;;;20.70;78.60;;;;;;5021333;28;20443;-76
2023/08/21 06:53:37;;;;;;;0.38;0.38;;;20.70;78.40;;;;;;4992979;28;20037;-76
2023/08/21 06:56:02;;;;;;;0.70;0.30;;;20.90;78.20;;;;;;5025634;28;20072;-76
2023/08/21 06:58:28;;;;;;;0.20;0.20;;;21.00;78.20;;;;;;5026396;28;20134;-76
2023/08/21 07:00:54;;;;;;;0.38;0.30;;;21.10;77.90;;;;;;5023384;28;20054;-76
2023/08/21 07:03:20;;;;;;;0.60;0.30;;;21.20;79.10;;;;;;5024162;28;20052;-76
2023/08/21 07:05:58;;;;;;;0.50;0.30;;;21.30;78.20;;;;;;5022054;28;20052;-76
2023/08/21 07:08:24;;;;;;;0.43;0.30;;;21.40;78.00;;;;;;5022118;28;20056;-76
2023/08/21 07:10:50;;;;;;;0.20;0.20;;;21.40;78.00;;;;;;5022462;28;20053;-76
2023/08/21 07:13:15;;;;;;;1.50;0.32;;;21.50;77.90;;;;;;5025580;28;20196;-76
2023/08/21 07:15:41;;;;;;;0.95;0.50;;;21.50;77.80;;;;;;5024544;28;20112;-77
2023/08/21 07:18:07;;;;;;;1.35;0.50;;;21.60;77.60;;;;;;5026851;28;20071;-76
2023/08/21 07:20:33;;;;;;;1.05;0.28;;;21.60;77.40;;;;;;5026100;28;20412;-76
2023/08/21 07:22:59;;;;;;;0.17;0.10;;;21.60;77.20;;;;;;5025130;28;20498;-76
2023/08/21 07:25:25;;;;;;;0.70;0.40;;;21.70;77.20;;;;;;5020714;28;20040;-77
2023/08/21 07:27:53;;;;;;;1.60;0.55;;;21.70;77.20;;;;;;5021194;28;20029;-77
2023/08/21 07:30:18;;;;;;;0.30;0.30;;;21.70;77.10;;;;;;4677709;28;9999752;-77
2023/08/21 07:32:44;;;;;;;0.35;0.30;;;21.70;77.20;;;;;;5024552;28;20080;-76
2023/08/21 07:35:10;;;;;;;1.35;0.38;;;21.80;77.20;;;;;;5026049;28;20454;-76
2023/08/21 07:37:36;;;;;;;0.20;0.20;;;21.80;77.10;;;;;;5020815;28;20045;-77
2023/08/21 07:40:01;;;;;;;0.43;0.20;;;21.90;76.90;;;;;;5025386;28;20041;-76
2023/08/21 07:42:27;;;;;;;0.45;0.30;;;21.90;76.90;;;;;;5009997;28;20488;-76
2023/08/21 07:44:53;;;;;;;0.20;0.20;;;21.90;76.80;;;;;;5020974;28;20037;-77
2023/08/21 07:47:18;;;;;;;0.32;0.10;;;21.90;76.60;;;;;;5024765;28;20045;-78
2023/08/21 07:49:44;;;;;;;0.20;0.20;;;22.00;76.50;;;;;;5023851;28;20407;-77
2023/08/21 07:52:09;;;;;;;0.20;0.20;;;22.00;76.50;;;;;;5023474;28;20040;-77
2023/08/21 07:54:35;;;;;;;1.45;0.28;;;22.00;76.30;;;;;;5025973;28;20038;-76
2023/08/21 07:57:00;;;;;;;0.95;0.30;;;22.10;76.30;;;;;;5024421;28;20608;-77
2023/08/21 07:59:26;;;;;;;0.10;0.10;;;22.10;76.30;;;;;;5025269;28;20607;-77
2023/08/21 08:01:52;;;;;;;0.20;0.20;;;22.10;76.20;;;;;;5024593;28;20033;-77
2023/08/21 08:04:17;;;;;;;0.30;0.30;;;22.10;76.30;;;;;;5024992;28;20042;-77
2023/08/21 08:06:43;;;;;;;0.55;0.40;;;22.10;76.20;;;;;;5025241;28;20092;-77
2023/08/21 08:09:09;;;;;;;0.50;0.15;;;22.10;76.20;;;;;;5025717;28;20392;-77
2023/08/21 08:11:34;;;;;;;0.95;0.40;;;22.10;76.10;;;;;;5022244;28;20114;-77
2023/08/21 08:14:00;;;;;;;0.20;0.20;;;22.20;76.00;;;;;;5022080;28;20103;-77
2023/08/21 08:16:25;;;;;;;0.22;0.20;;;22.20;75.90;;;;;;5024350;28;20055;-77
2023/08/21 08:18:51;;;;;;;0.30;0.20;;;22.20;75.80;;;;;;5004350;28;20407;-77
2023/08/21 08:21:17;;;;;;;1.05;0.15;;;22.20;75.80;;;;;;5025444;28;20076;-77
2023/08/21 08:23:43;;;;;;;0.77;0.40;;;22.20;75.70;;;;;;5022982;28;20041;-77
2023/08/21 08:26:08;;;;;;;0.73;0.20;;;22.30;75.80;;;;;;5023858;28;20392;-77
2023/08/21 08:28:34;;;;;;;0.73;0.30;;;22.20;75.70;;;;;;5024080;28;20121;-77
2023/08/21 08:31:00;;;;;;;0.47;0.15;;;22.20;75.70;;;;;;5006691;28;20038;-77
2023/08/21 08:33:26;;;;;;;0.20;0.15;;;22.30;75.70;;;;;;5026054;28;20039;-77
2023/08/21 08:35:52;;;;;;;0.20;0.20;;;22.30;75.70;;;;;;5024417;28;20064;-77
2023/08/21 08:38:18;;;;;;;0.20;0.20;;;22.30;75.60;;;;;;5025098;28;20096;-77
2023/08/21 08:40:44;;;;;;;0.63;0.28;;;22.30;75.50;;;;;;5023544;28;20049;-77
2023/08/21 08:43:14;;;;;;;0.20;0.20;;;22.40;75.40;;;;;;5022608;28;20041;-77
2023/08/21 08:45:43;;;;;;;0.20;0.20;;;22.40;75.30;;;;;;5021817;28;20029;-77
2023/08/21 08:48:09;;;;;;;0.10;0.10;;;22.40;75.30;;;;;;5008007;28;20111;-77
2023/08/21 08:50:35;;;;;;;0.22;0.13;;;22.40;75.30;;;;;;5005545;28;20045;-77
2023/08/21 08:53:00;;;;;;;0.82;0.15;;;22.40;75.20;;;;;;5021276;28;20060;-77
2023/08/21 08:55:26;;;;;;;0.10;0.10;;;22.50;75.20;;;;;;5005294;28;20523;-77
2023/08/21 08:57:55;;;;;;;0.95;0.20;;;22.50;76.10;;;;;;5020338;28;20053;-78
2023/08/21 09:00:21;;;;;;;0.20;0.20;;;22.50;75.30;;;;;;5025246;28;20112;-77
2023/08/21 09:02:47;;;;;;;0.10;0.10;;;22.50;75.30;;;;;;5022698;28;20072;-77
2023/08/21 09:05:13;;;;;;;0.20;0.20;;;22.50;75.40;;;;;;5024224;28;20124;-77
2023/08/21 09:07:39;;;;;;;0.20;0.20;;;22.50;75.30;;;;;;5005346;28;20092;-77
2023/08/21 09:10:08;;;;;;;0.28;0.20;;;22.60;75.40;;;;;;5024398;28;20041;-77
2023/08/21 09:12:33;;;;;;;0.35;0.20;;;22.60;75.30;;;;;;5021421;28;20119;-77
2023/08/21 09:14:59;;;;;;;0.20;0.20;;;22.60;75.10;;;;;;5023224;28;20057;-77
2023/08/21 09:17:26;;;;;;;0.30;0.20;;;22.60;75.10;;;;;;5003435;28;20042;-77
2023/08/21 09:19:51;;;;;;;0.47;0.20;;;22.60;75.00;;;;;;5020286;28;20043;-77
2023/08/21 09:22:18;;;;;;;0.60;0.10;;;22.60;75.10;;;;;;5023627;28;20478;-77
2023/08/21 09:25:05;;;;;;;0.60;0.17;;;22.60;75.10;;;;;;5008653;28;20042;-77
2023/08/21 09:27:31;;;;;;;0.10;0.10;;;22.70;75.10;;;;;;5024465;28;20038;-77
2023/08/21 09:29:57;;;;;;;0.15;0.10;;;22.70;75.20;;;;;;5002745;28;20049;-77
2023/08/21 09:32:23;;;;;;;0.30;0.10;;;22.70;75.20;;;;;;5047687;28;20122;-77
2023/08/21 09:34:48;;;;;;;0.40;0.40;;;22.70;75.20;;;;;;5025820;28;20050;-77
2023/08/21 09:37:14;;;;;;;0.57;0.10;;;22.70;75.10;;;;;;5023025;28;20041;-77
2023/08/21 09:39:40;;;;;;;0.30;0.10;;;22.80;75.10;;;;;;5023720;28;20534;-77
2023/08/21 09:42:06;;;;;;;0.22;0.17;;;22.80;75.20;;;;;;5024056;28;20037;-77
2023/08/21 09:44:39;;;;;;;0.20;0.20;;;22.80;75.20;;;;;;5021919;28;20080;-77
2023/08/21 09:47:07;;;;;;;0.13;0.10;;;22.80;75.10;;;;;;5019157;28;20507;-77
2023/08/21 09:49:33;;;;;;;0.20;0.10;;;22.80;75.10;;;;;;5021616;28;20038;-77
2023/08/21 09:51:58;;;;;;;0.20;0.20;;;22.80;75.80;;;;;;5023101;28;20430;-77
2023/08/21 09:54:24;;;;;;;0.15;0.15;;;22.80;75.10;;;;;;5025083;28;20050;-77
2023/08/21 09:56:49;;;;;;;0.57;0.20;;;22.90;75.10;;;;;;5018565;28;20117;-77
2023/08/21 09:59:15;;;;;;;0.32;0.10;;;22.90;75.10;;;;;;5024042;28;20037;-77
2023/08/21 10:01:40;;;;;;;0.13;0.13;;;22.90;75.30;;;;;;5003231;28;20061;-78
2023/08/21 10:04:06;;;;;;;1.23;0.05;;;22.90;75.00;;;;;;5022691;28;20616;-77
2023/08/21 10:06:32;;;;;;;0.10;0.10;;;22.90;75.40;;;;;;5026182;28;20742;-77
2023/08/21 10:08:57;;;;;;;0.47;0.10;;;23.00;75.90;;;;;;5023294;28;20144;-77
2023/08/21 10:11:23;;;;;;;0.20;0.10;;;23.00;75.70;;;;;;5024580;28;20037;-77
2023/08/21 10:13:50;;;;;;;0.10;0.10;;;23.00;75.60;;;;;;5007982;28;20571;-76
2023/08/21 10:16:15;;;;;;;0.32;0.10;;;23.00;75.40;;;;;;5023332;28;20038;-77
2023/08/21 10:18:44;;;;;;;0.47;0.10;;;23.00;75.30;;;;;;4992535;28;20045;-77
2023/08/21 10:21:17;;;;;;;0.63;0.20;;;23.10;75.40;;;;;;5026581;28;20056;-77
2023/08/21 10:23:45;;;;;;;0.50;0.20;;;23.10;75.30;;;;;;5024519;28;20045;-78
2023/08/21 10:26:11;;;;;;;0.20;0.10;;;23.00;75.20;;;;;;5017074;28;20292;-77
2023/08/21 10:29:07;;;;;;;0.20;0.15;;;23.00;75.20;;;;;;5023419;28;20079;-77
2023/08/21 10:31:33;;;;;;;0.45;0.20;;;23.10;75.40;;;;;;5025552;28;20053;-77
2023/08/21 10:34:00;;;;;;;0.10;0.10;;;23.10;75.20;;;;;;5025753;28;20462;-77
2023/08/21 10:36:44;;;;;;;0.20;0.15;;;23.10;75.20;;;;;;5028123;28;20116;-78
2023/08/21 10:39:17;;;;;;;0.10;0.10;;;23.10;74.90;;;;;;5026098;28;20081;-78
2023/08/21 10:41:56;;;;;;;0.35;0.20;;;23.10;74.80;;;;;;5026260;28;20566;-78
2023/08/21 10:44:57;;;;;;;0.43;0.30;;;23.10;75.10;;;;;;5016809;28;20061;-79
2023/08/21 10:47:32;;;;;;;7.25;1.83;;;23.10;75.40;;;;;;5027091;28;20124;-79
2023/08/21 10:49:58;;;;;;;10.90;2.95;;;23.20;75.80;;;;;;4315435;28;10000675;-78
2023/08/21 10:52:28;;;;;;;149.57;35.85;;;23.10;76.30;;;;;;5023871;28;20045;-79
2023/08/21 10:55:03;;;;;;;227.80;53.60;;;23.20;77.30;;;;;;5023702;28;20046;-79
2023/08/21 10:57:30;;;;;;;176.95;45.35;;;23.20;76.50;;;;;;5023657;28;20050;-79
2023/08/21 11:00:00;;;;;;;137.50;37.03;;;23.20;78.40;;;;;;5020304;28;21124;-78
2023/08/21 11:02:28;;;;;;;81.50;23.60;;;23.30;77.90;;;;;;5001778;28;20057;-79
2023/08/21 11:04:54;;;;;;;59.85;17.85;;;23.30;76.90;;;;;;5020537;28;20489;-78
2023/08/21 11:07:20;;;;;;;53.30;15.30;;;23.30;76.80;;;;;;5023237;28;20046;-79
2023/08/21 11:09:46;;;;;;;43.85;13.05;;;23.30;76.40;;;;;;5005395;28;20259;-78
2023/08/21 11:12:14;;;;;;;38.15;11.45;;;23.30;76.20;;;;;;5004891;28;20041;-78
2023/08/21 11:14:39;;;;;;;37.97;10.55;;;23.30;75.90;;;;;;5019965;28;20501;-79
2023/08/21 11:17:05;;;;;;;29.23;7.88;;;23.30;75.80;;;;;;5018997;28;20058;-78
2023/08/21 11:19:34;;;;;;;21.17;7.18;;;23.30;75.60;;;;;;5019091;28;20041;-78
2023/08/21 11:22:03;;;;;;;21.67;7.70;;;23.30;75.20;;;;;;5020136;28;20061;-79
2023/08/21 11:24:56;;;;;;;24.80;7.30;;;23.30;75.20;;;;;;5021336;28;20056;-79
2023/08/21 11:27:21;;;;;;;19.77;7.07;;;23.40;76.10;;;;;;5018269;28;20045;-78
2023/08/21 11:29:51;;;;;;;18.88;6.80;;;23.40;75.20;;;;;;5018869;28;20086;-78
2023/08/21 11:32:23;;;;;;;21.42;6.78;;;23.40;75.00;;;;;;5011380;28;20042;-77
2023/08/21 11:34:55;;;;;;;22.10;7.32;;;23.40;76.50;;;;;;5024939;28;20069;-76
2023/08/21 11:37:25;;;;;;;21.63;7.85;;;23.40;76.80;;;;;;5023023;28;20042;-74
2023/08/21 11:39:53;;;;;;;19.13;6.90;;;23.50;76.40;;;;;;5025080;28;20055;-75
2023/08/21 11:42:20;;;;;;;22.92;6.70;;;23.50;76.10;;;;;;5026530;28;20072;-75
2023/08/21 11:44:47;;;;;;;15.30;5.85;;;23.50;75.60;;;;;;5025155;28;20058;-75
2023/08/21 11:47:13;;;;;;;14.02;5.28;;;23.50;75.50;;;;;;5024598;28;20520;-75
2023/08/21 11:49:41;;;;;;;14.88;5.38;;;23.60;75.80;;;;;;5025428;28;20045;-74
2023/08/21 11:52:06;;;;;;;14.10;5.40;;;23.60;76.50;;;;;;5022325;28;20038;-74
2023/08/21 11:54:35;;;;;;;17.67;6.10;;;23.60;76.20;;;;;;5025772;28;20046;-74
2023/08/21 11:57:03;;;;;;;13.70;5.78;;;23.60;75.90;;;;;;5022257;28;20065;-74
2023/08/21 11:59:29;;;;;;;14.20;4.90;;;23.70;76.20;;;;;;5024717;28;20136;-74
2023/08/21 12:01:55;;;;;;;14.43;4.90;;;23.70;76.10;;;;;;5006766;28;20077;-74
2023/08/21 12:04:21;;;;;;;14.63;4.85;;;23.70;76.00;;;;;;5025376;28;20115;-75
2023/08/21 12:06:46;;;;;;;9.55;4.22;;;23.70;76.10;;;;;;5024607;28;20034;-75
2023/08/21 12:09:12;;;;;;;10.70;4.28;;;23.70;76.00;;;;;;5023805;28;20026;-74
2023/08/21 12:11:38;;;;;;;10.60;4.30;;;23.80;76.50;;;;;;5022437;28;20032;-75
2023/08/21 12:14:04;;;;;;;13.15;5.00;;;23.80;77.00;;;;;;5024505;28;20553;-74
2023/08/21 12:16:30;;;;;;;10.48;3.90;;;23.80;76.30;;;;;;5023390;28;20507;-74
2023/08/21 12:18:57;;;;;;;10.55;4.32;;;23.80;76.10;;;;;;5025108;28;20046;-75
2023/08/21 12:21:23;;;;;;;10.15;4.10;;;23.80;75.90;;;;;;5025297;28;20128;-74
2023/08/21 12:23:49;;;;;;;7.50;3.70;;;23.80;76.60;;;;;;5025274;28;20120;-75
2023/08/21 12:26:20;;;;;;;9.52;3.70;;;23.80;75.70;;;;;;5024036;28;20125;-75
2023/08/21 12:28:49;;;;;;;7.20;3.35;;;23.80;76.30;;;;;;5009002;28;20099;-75
2023/08/21 12:31:15;;;;;;;8.32;3.60;;;23.80;75.30;;;;;;5006139;28;20049;-75
2023/08/21 12:33:40;;;;;;;8.63;3.22;;;23.80;75.10;;;;;;5024740;28;20091;-74
2023/08/21 12:36:08;;;;;;;6.95;3.45;;;23.80;75.10;;;;;;5025714;28;20049;-75
2023/08/21 12:38:34;;;;;;;8.35;4.15;;;23.80;74.90;;;;;;5024102;28;20108;-75
2023/08/21 12:41:00;;;;;;;7.72;4.10;;;23.80;75.10;;;;;;5023175;28;20460;-76
2023/08/21 12:43:26;;;;;;;6.28;3.10;;;23.80;75.10;;;;;;5022316;28;20462;-77